createdAt,value
2017-05-09T00:02:09.782Z,9.63
2017-05-09T00:04:37.291Z,9.66
2017-05-09T00:07:04.847Z,9.67
2017-05-09T00:09:32.351Z,9.61
2017-05-09T00:12:00.048Z,9.55
2017-05-09T00:14:27.590Z,9.45
2017-05-09T00:16:55.094Z,9.46
2017-05-09T00:19:22.647Z,9.55
2017-05-09T00:21:50.166Z,9.35
2017-05-09T00:24:18.025Z,9.38
2017-05-09T00:26:45.553Z,9.43
2017-05-09T00:29:13.103Z,9.34
2017-05-09T00:31:40.684Z,9.18
2017-05-09T00:34:08.197Z,9.22
2017-05-09T00:36:35.828Z,9.21
2017-05-09T00:39:03.363Z,9.38
2017-05-09T00:41:30.883Z,9.14
2017-05-09T00:43:58.475Z,9.08
2017-05-09T00:46:25.996Z,9.23
2017-05-09T00:48:53.703Z,9.11
2017-05-09T00:51:21.221Z,8.97
2017-05-09T00:53:48.742Z,8.89
2017-05-09T00:56:16.305Z,8.74
2017-05-09T00:58:43.814Z,8.68
2017-05-09T01:01:11.371Z,8.78
2017-05-09T01:03:38.893Z,8.96
2017-05-09T01:06:06.584Z,8.93
2017-05-09T01:08:34.096Z,9.00
2017-05-09T01:11:01.646Z,9.00
2017-05-09T01:13:29.192Z,8.84
2017-05-09T01:15:56.714Z,8.83
2017-05-09T01:18:24.264Z,8.73
2017-05-09T01:20:51.883Z,8.85
2017-05-09T01:23:19.553Z,8.76
2017-05-09T01:25:47.093Z,8.74
2017-05-09T01:28:14.603Z,8.73
2017-05-09T01:30:42.195Z,8.63
2017-05-09T01:33:09.711Z,8.68
2017-05-09T01:35:37.368Z,8.55
2017-05-09T01:38:05.014Z,8.69
2017-05-09T01:40:32.605Z,8.54
2017-05-09T01:43:00.227Z,8.76
2017-05-09T01:45:27.882Z,8.72
2017-05-09T01:47:55.440Z,8.61
2017-05-09T01:50:22.976Z,8.51
2017-05-09T01:52:50.534Z,8.67
2017-05-09T01:55:18.057Z,8.52
2017-05-09T01:57:45.626Z,8.65
2017-05-09T02:00:13.135Z,8.34
2017-05-09T02:02:40.779Z,8.41
2017-05-09T02:05:08.302Z,8.41
2017-05-09T02:07:36.055Z,8.30
2017-05-09T02:10:03.536Z,8.61
2017-05-09T02:12:31.059Z,8.64
2017-05-09T02:14:58.560Z,8.42
2017-05-09T02:17:26.085Z,8.38
2017-05-09T02:19:53.624Z,8.34
2017-05-09T02:22:21.138Z,8.32
2017-05-09T02:24:48.697Z,8.29
2017-05-09T02:27:16.216Z,8.46
2017-05-09T02:29:43.775Z,8.36
2017-05-09T02:32:11.296Z,8.42
2017-05-09T02:34:38.853Z,8.37
2017-05-09T02:37:06.392Z,8.28
2017-05-09T02:39:33.914Z,8.27
2017-05-09T02:42:01.539Z,8.42
2017-05-09T02:44:29.055Z,8.37
2017-05-09T02:46:56.776Z,8.56
2017-05-09T02:49:24.393Z,8.35
2017-05-09T02:51:51.913Z,8.31
2017-05-09T02:54:19.483Z,8.36
2017-05-09T02:56:47.002Z,8.02
2017-05-09T02:59:14.559Z,8.13
2017-05-09T03:01:42.072Z,8.23
2017-05-09T03:04:09.841Z,7.86
2017-05-09T03:06:37.358Z,7.70
2017-05-09T03:09:04.855Z,7.98
2017-05-09T03:11:32.479Z,7.77
2017-05-09T03:13:59.997Z,7.79
2017-05-09T03:16:27.573Z,7.81
2017-05-09T03:18:55.091Z,7.91
2017-05-09T03:21:22.832Z,7.77
2017-05-09T03:23:50.327Z,7.86
2017-05-09T03:26:17.858Z,7.69
2017-05-09T03:28:45.412Z,7.65
2017-05-09T03:31:12.981Z,7.60
2017-05-09T03:33:40.527Z,7.64
2017-05-09T03:36:08.083Z,7.57
2017-05-09T03:38:35.734Z,7.42
2017-05-09T03:41:03.251Z,7.57
2017-05-09T03:43:30.769Z,7.46
2017-05-09T03:45:58.323Z,7.48
2017-05-09T03:48:25.827Z,7.39
2017-05-09T03:50:53.533Z,7.26
2017-05-09T03:53:21.044Z,7.39
2017-05-09T03:55:48.561Z,7.15
2017-05-09T03:58:16.121Z,7.46
2017-05-09T04:00:43.631Z,7.32
2017-05-09T04:03:11.301Z,7.28
2017-05-09T04:05:38.851Z,7.26
2017-05-09T04:08:06.370Z,7.05
2017-05-09T04:10:33.933Z,7.14
2017-05-09T04:13:01.451Z,7.09
2017-05-09T04:15:28.999Z,7.07
2017-05-09T04:17:56.507Z,7.22
2017-05-09T04:20:24.034Z,7.13
2017-05-09T04:22:51.770Z,7.15
2017-05-09T04:25:19.316Z,7.15
2017-05-09T04:27:46.829Z,7.15
2017-05-09T04:30:14.596Z,7.17
2017-05-09T04:32:42.119Z,7.03
2017-05-09T04:35:09.640Z,6.99
2017-05-09T04:37:37.176Z,6.86
2017-05-09T04:40:04.712Z,6.91
2017-05-09T04:42:32.318Z,7.12
2017-05-09T04:44:59.912Z,6.96
2017-05-09T04:47:27.659Z,6.90
2017-05-09T04:49:55.176Z,6.96
2017-05-09T04:52:22.696Z,7.07
2017-05-09T04:54:50.271Z,7.03
2017-05-09T04:57:17.796Z,7.18
2017-05-09T04:59:45.379Z,7.13
2017-05-09T05:02:13.024Z,7.21
2017-05-09T05:04:40.933Z,7.07
2017-05-09T05:07:08.471Z,7.28
2017-05-09T05:09:36.055Z,7.42
2017-05-09T05:12:03.624Z,7.25
2017-05-09T05:14:31.210Z,7.32
2017-05-09T05:16:58.775Z,7.44
2017-05-09T05:19:26.291Z,7.51
2017-05-09T05:21:53.943Z,7.51
2017-05-09T05:24:21.460Z,7.50
2017-05-09T05:26:48.969Z,7.53
2017-05-09T05:29:16.515Z,7.77
2017-05-09T05:31:44.080Z,7.90
2017-05-09T05:34:11.931Z,7.98
2017-05-09T05:36:39.439Z,8.00
2017-05-09T05:39:06.956Z,7.95
2017-05-09T05:41:34.510Z,8.01
2017-05-09T05:44:02.278Z,7.86
2017-05-09T05:46:29.851Z,7.77
2017-05-09T05:48:57.485Z,7.77
2017-05-09T05:51:25.182Z,7.86
2017-05-09T05:53:52.786Z,7.95
2017-05-09T05:56:20.473Z,7.83
2017-05-09T05:58:48.068Z,8.12
2017-05-09T06:01:15.652Z,8.04
2017-05-09T06:03:43.210Z,8.13
2017-05-09T06:06:10.735Z,8.19
2017-05-09T06:08:38.523Z,8.16
2017-05-09T06:11:06.254Z,8.16
2017-05-09T06:13:33.776Z,8.24
2017-05-09T06:16:01.352Z,8.31
2017-05-09T06:18:28.878Z,8.51
2017-05-09T06:20:56.455Z,8.61
2017-05-09T06:23:23.972Z,8.63
2017-05-09T06:25:51.541Z,8.75
2017-05-09T06:28:19.081Z,8.72
2017-05-09T06:30:47.025Z,8.85
2017-05-09T06:33:14.540Z,8.79
2017-05-09T06:35:42.058Z,8.87
2017-05-09T06:38:09.619Z,8.90
2017-05-09T06:40:37.138Z,9.01
2017-05-09T06:43:04.844Z,9.27
2017-05-09T06:45:32.364Z,9.21
2017-05-09T06:47:59.893Z,9.20
2017-05-09T06:50:27.457Z,9.18
2017-05-09T06:52:54.976Z,9.30
2017-05-09T06:55:22.535Z,9.71
2017-05-09T06:57:50.033Z,9.61
2017-05-09T07:00:17.608Z,9.64
2017-05-09T07:02:45.121Z,9.79
2017-05-09T07:05:12.973Z,9.89
2017-05-09T07:07:40.479Z,9.78
2017-05-09T07:10:08.000Z,9.70
2017-05-09T07:12:35.543Z,9.66
2017-05-09T07:15:03.063Z,9.87
2017-05-09T07:17:30.724Z,9.93
2017-05-09T07:19:58.245Z,9.92
2017-05-09T07:22:25.755Z,9.88
2017-05-09T07:24:53.313Z,9.93
2017-05-09T07:27:20.932Z,10.07
2017-05-09T07:29:48.549Z,10.10
2017-05-09T07:32:16.129Z,10.03
2017-05-09T07:34:43.639Z,10.30
2017-05-09T07:37:11.201Z,10.52
2017-05-09T07:39:38.724Z,10.36
2017-05-09T07:42:06.344Z,10.35
2017-05-09T07:44:33.941Z,10.39
2017-05-09T07:47:01.861Z,10.68
2017-05-09T07:49:29.376Z,10.60
2017-05-09T07:51:56.888Z,10.38
2017-05-09T07:54:24.443Z,10.55
2017-05-09T07:56:51.972Z,10.58
2017-05-09T07:59:19.637Z,10.69
2017-05-09T08:01:47.162Z,10.69
2017-05-09T08:04:14.667Z,10.87
2017-05-09T08:06:42.304Z,10.65
2017-05-09T08:09:09.827Z,10.84
2017-05-09T08:11:37.391Z,10.73
2017-05-09T08:14:04.963Z,10.84
2017-05-09T08:16:32.627Z,11.06
2017-05-09T08:19:00.156Z,10.98
2017-05-09T08:21:27.760Z,10.86
2017-05-09T08:23:55.308Z,11.06
2017-05-09T08:26:22.858Z,11.02
2017-05-09T08:28:50.489Z,10.98
2017-05-09T08:31:18.027Z,10.92
2017-05-09T08:33:45.712Z,11.04
2017-05-09T08:36:13.243Z,11.05
2017-05-09T08:38:40.823Z,11.16
2017-05-09T08:41:08.379Z,11.13
2017-05-09T08:43:35.891Z,11.27
2017-05-09T08:46:03.455Z,11.20
2017-05-09T08:48:31.002Z,11.33
2017-05-09T08:50:58.707Z,11.31
2017-05-09T08:53:26.224Z,11.22
2017-05-09T08:55:53.735Z,11.34
2017-05-09T08:58:21.308Z,11.20
2017-05-09T09:00:48.880Z,11.20
2017-05-09T09:03:16.431Z,11.33
2017-05-09T09:05:43.955Z,11.55
2017-05-09T09:08:11.507Z,11.50
2017-05-09T09:10:39.064Z,11.57
2017-05-09T09:13:06.909Z,12.01
2017-05-09T09:15:34.440Z,12.12
2017-05-09T09:18:01.992Z,12.07
2017-05-09T09:20:29.560Z,12.28
2017-05-09T09:22:57.071Z,12.40
2017-05-09T09:25:24.628Z,12.55
2017-05-09T09:27:52.168Z,12.62
2017-05-09T09:30:20.151Z,12.69
2017-05-09T09:32:47.698Z,12.63
2017-05-09T09:35:15.220Z,12.40
2017-05-09T09:37:42.767Z,12.32
2017-05-09T09:40:10.281Z,12.25
2017-05-09T09:42:37.851Z,12.59
2017-05-09T09:45:05.367Z,12.65
2017-05-09T09:47:33.052Z,12.68
2017-05-09T09:50:00.575Z,12.95
2017-05-09T09:52:28.115Z,12.88
2017-05-09T09:54:55.678Z,12.97
2017-05-09T09:57:23.200Z,12.69
2017-05-09T09:59:50.753Z,12.86
2017-05-09T10:02:18.264Z,13.09
2017-05-09T10:04:45.827Z,13.61
2017-05-09T10:07:13.344Z,13.39
2017-05-09T10:09:41.003Z,13.40
2017-05-09T10:12:08.523Z,13.61
2017-05-09T10:14:36.060Z,13.76
2017-05-09T10:17:03.707Z,13.79
2017-05-09T10:19:31.259Z,13.89
2017-05-09T10:21:58.840Z,13.90
2017-05-09T10:24:26.370Z,13.82
2017-05-09T10:26:54.120Z,13.93
2017-05-09T10:29:21.646Z,14.38
2017-05-09T10:31:49.191Z,14.60
2017-05-09T10:34:16.739Z,14.49
2017-05-09T10:36:44.256Z,14.67
2017-05-09T10:39:11.884Z,14.81
2017-05-09T10:41:39.456Z,15.31
2017-05-09T10:44:07.039Z,15.05
2017-05-09T10:46:34.592Z,14.77
2017-05-09T10:49:02.327Z,15.34
2017-05-09T10:51:29.927Z,15.49
2017-05-09T10:53:57.524Z,15.58
2017-05-09T10:56:25.132Z,15.57
2017-05-09T10:58:52.652Z,15.51
2017-05-09T11:01:20.208Z,14.95
2017-05-09T11:03:47.771Z,14.84
2017-05-09T11:06:15.396Z,15.20
2017-05-09T11:08:42.912Z,15.36
2017-05-09T11:11:10.577Z,15.15
2017-05-09T11:13:38.086Z,15.26
2017-05-09T11:16:05.615Z,15.36
2017-05-09T11:18:33.192Z,15.90
2017-05-09T11:21:00.815Z,15.60
2017-05-09T11:23:28.387Z,15.24
2017-05-09T11:25:55.920Z,14.98
2017-05-09T11:28:23.779Z,14.86
2017-05-09T11:30:51.304Z,14.68
2017-05-09T11:33:18.865Z,15.07
2017-05-09T11:35:46.490Z,15.30
2017-05-09T11:38:14.012Z,15.60
2017-05-09T11:40:41.524Z,16.02
2017-05-09T11:43:09.299Z,16.35
2017-05-09T11:45:36.825Z,15.95
2017-05-09T11:48:04.363Z,15.11
2017-05-09T11:50:32.028Z,14.84
2017-05-09T11:52:59.561Z,15.29
2017-05-09T11:55:27.303Z,15.44
2017-05-09T11:57:54.807Z,15.62
2017-05-09T12:00:22.379Z,15.85
2017-05-09T12:02:49.939Z,16.36
2017-05-09T12:05:17.561Z,16.82
2017-05-09T12:07:45.258Z,17.37
2017-05-09T12:10:12.817Z,16.92
2017-05-09T12:12:40.368Z,17.02
2017-05-09T12:15:07.965Z,16.95
2017-05-09T12:17:35.484Z,16.32
2017-05-09T12:20:03.222Z,16.16
2017-05-09T12:22:30.741Z,15.83
2017-05-09T12:24:58.262Z,15.30
2017-05-09T12:27:25.818Z,15.27
2017-05-09T12:29:53.343Z,15.91
2017-05-09T12:32:20.912Z,16.36
2017-05-09T12:34:48.427Z,16.45
2017-05-09T12:37:15.990Z,16.23
2017-05-09T12:39:43.507Z,15.97
2017-05-09T12:42:11.292Z,15.94
2017-05-09T12:44:38.984Z,16.06
2017-05-09T12:47:06.515Z,16.51
2017-05-09T12:49:34.089Z,16.98
2017-05-09T12:52:01.608Z,17.41
2017-05-09T12:54:29.171Z,17.34
2017-05-09T12:56:56.729Z,16.88
2017-05-09T12:59:24.422Z,16.89
2017-05-09T13:01:52.000Z,16.66
2017-05-09T13:04:19.571Z,16.71
2017-05-09T13:06:47.148Z,16.80
2017-05-09T13:09:14.705Z,16.32
2017-05-09T13:11:42.271Z,16.39
2017-05-09T13:14:09.784Z,16.22
2017-05-09T13:16:37.351Z,16.21
2017-05-09T13:19:04.892Z,16.37
2017-05-09T13:21:32.790Z,16.46
2017-05-09T13:24:00.353Z,16.41
2017-05-09T13:26:27.965Z,16.33
2017-05-09T13:28:55.615Z,16.36
2017-05-09T13:31:23.167Z,16.22
2017-05-09T13:33:50.719Z,16.32
2017-05-09T13:36:18.243Z,16.38
2017-05-09T13:38:45.980Z,16.80
2017-05-09T13:41:13.526Z,17.28
2017-05-09T13:43:41.122Z,17.73
2017-05-09T13:46:08.691Z,18.04
2017-05-09T13:48:36.409Z,17.43
2017-05-09T13:51:03.975Z,17.34
2017-05-09T13:53:31.499Z,17.22
2017-05-09T13:55:59.137Z,16.94
2017-05-09T13:58:26.683Z,16.88
2017-05-09T14:00:54.593Z,16.74
2017-05-09T14:03:22.132Z,16.37
2017-05-09T14:05:49.657Z,16.27
2017-05-09T14:08:17.213Z,16.27
2017-05-09T14:10:44.794Z,16.51
2017-05-09T14:13:12.475Z,16.53
2017-05-09T14:15:40.024Z,16.65
2017-05-09T14:18:07.561Z,16.81
2017-05-09T14:20:35.140Z,16.97
2017-05-09T14:23:02.748Z,17.83
2017-05-09T14:25:30.586Z,18.10
2017-05-09T14:27:58.169Z,18.30
2017-05-09T14:30:25.675Z,17.60
2017-05-09T14:32:53.257Z,18.22
2017-05-09T14:35:20.794Z,18.80
2017-05-09T14:37:48.481Z,19.60
2017-05-09T14:40:16.000Z,19.54
2017-05-09T14:42:43.515Z,18.45
2017-05-09T14:45:11.087Z,17.91
2017-05-09T14:47:38.611Z,18.26
2017-05-09T14:50:06.203Z,18.73
2017-05-09T14:52:33.724Z,19.26
2017-05-09T14:55:01.266Z,19.38
2017-05-09T14:57:28.826Z,19.37
2017-05-09T14:59:56.368Z,19.31
2017-05-09T15:02:24.047Z,19.25
2017-05-09T15:04:51.613Z,19.22
2017-05-09T15:07:19.143Z,18.85
2017-05-09T15:09:46.786Z,19.13
2017-05-09T15:12:14.385Z,19.92
2017-05-09T15:14:42.112Z,19.59
2017-05-09T15:17:09.625Z,19.10
2017-05-09T15:19:37.169Z,18.78
2017-05-09T15:22:04.756Z,19.30
2017-05-09T15:24:32.356Z,18.84
2017-05-09T15:26:59.902Z,19.11
2017-05-09T15:29:27.473Z,19.38
2017-05-09T15:31:55.105Z,19.27
2017-05-09T15:34:22.832Z,18.93
2017-05-09T15:36:50.363Z,18.57
2017-05-09T15:39:17.915Z,18.23
2017-05-09T15:41:45.515Z,18.73
2017-05-09T15:44:13.031Z,18.46
2017-05-09T15:46:40.854Z,18.54
2017-05-09T15:49:08.379Z,18.97
2017-05-09T15:51:35.894Z,19.24
2017-05-09T15:54:03.469Z,19.33
2017-05-09T15:56:30.976Z,19.66
2017-05-09T15:58:58.734Z,19.49
2017-05-09T16:01:26.264Z,19.24
2017-05-09T16:03:53.792Z,19.31
2017-05-09T16:06:21.347Z,19.27
2017-05-09T16:08:48.918Z,19.09
2017-05-09T16:11:16.476Z,18.90
2017-05-09T16:13:44.028Z,18.68
2017-05-09T16:16:11.569Z,18.27
2017-05-09T16:18:39.096Z,17.67
2017-05-09T16:21:06.811Z,17.69
2017-05-09T16:23:34.817Z,18.04
2017-05-09T16:26:02.348Z,18.25
2017-05-09T16:28:29.947Z,18.21
2017-05-09T16:30:57.471Z,18.31
2017-05-09T16:33:25.163Z,18.22
2017-05-09T16:35:52.683Z,18.25
2017-05-09T16:38:20.233Z,18.13
2017-05-09T16:40:47.795Z,18.13
2017-05-09T16:43:15.323Z,18.28
2017-05-09T16:45:42.911Z,18.11
2017-05-09T16:48:10.450Z,17.95
2017-05-09T16:50:38.024Z,18.21
2017-05-09T16:53:05.552Z,17.91
2017-05-09T16:55:33.104Z,18.17
2017-05-09T16:58:00.669Z,18.50
2017-05-09T17:00:28.403Z,18.27
2017-05-09T17:02:55.948Z,17.95
2017-05-09T17:05:23.528Z,17.73
2017-05-09T17:07:51.137Z,17.76
2017-05-09T17:10:18.683Z,17.38
2017-05-09T17:12:46.403Z,17.28
2017-05-09T17:15:13.943Z,17.06
2017-05-09T17:17:41.727Z,16.91
2017-05-09T17:20:09.301Z,16.90
2017-05-09T17:22:36.829Z,17.20
2017-05-09T17:25:04.421Z,17.31
2017-05-09T17:27:31.987Z,16.94
2017-05-09T17:29:59.588Z,16.99
2017-05-09T17:32:27.158Z,16.72
2017-05-09T17:34:54.727Z,16.72
2017-05-09T17:37:22.267Z,16.69
2017-05-09T17:39:49.982Z,16.80
2017-05-09T17:42:17.496Z,17.47
2017-05-09T17:44:45.026Z,18.10
2017-05-09T17:47:12.592Z,18.48
2017-05-09T17:49:40.125Z,17.89
2017-05-09T17:52:07.721Z,17.37
2017-05-09T17:54:35.293Z,17.52
2017-05-09T17:57:02.903Z,18.07
2017-05-09T17:59:30.480Z,18.36
2017-05-09T18:01:58.562Z,18.21
2017-05-09T18:04:26.120Z,17.89
2017-05-09T18:06:53.648Z,17.56
2017-05-09T18:09:21.340Z,17.08
2017-05-09T18:11:49.096Z,16.40
2017-05-09T18:14:16.637Z,16.20
2017-05-09T18:16:44.449Z,16.04
2017-05-09T18:19:11.987Z,16.09
2017-05-09T18:21:39.688Z,15.93
2017-05-09T18:24:07.381Z,15.67
2017-05-09T18:26:34.939Z,15.59
2017-05-09T18:29:02.542Z,15.49
2017-05-09T18:31:30.175Z,15.43
2017-05-09T18:33:57.748Z,15.29
2017-05-09T18:36:25.257Z,15.27
2017-05-09T18:38:53.158Z,15.13
2017-05-09T18:41:20.771Z,15.21
2017-05-09T18:43:48.332Z,15.05
2017-05-09T18:46:15.911Z,15.08
2017-05-09T18:48:43.460Z,14.96
2017-05-09T18:51:11.236Z,14.96
2017-05-09T18:53:38.772Z,14.97
2017-05-09T18:56:06.331Z,14.80
2017-05-09T18:58:33.941Z,14.86
2017-05-09T19:01:01.544Z,14.87
2017-05-09T19:03:29.163Z,14.75
2017-05-09T19:05:56.718Z,14.51
2017-05-09T19:08:24.260Z,14.61
2017-05-09T19:10:51.853Z,14.54
2017-05-09T19:13:19.400Z,14.41
2017-05-09T19:15:47.111Z,14.29
2017-05-09T19:18:14.636Z,14.17
2017-05-09T19:20:42.199Z,14.22
2017-05-09T19:23:09.776Z,14.02
2017-05-09T19:25:37.315Z,13.80
2017-05-09T19:28:05.060Z,13.84
2017-05-09T19:30:32.622Z,13.83
2017-05-09T19:33:00.161Z,13.73
2017-05-09T19:35:27.748Z,13.67
2017-05-09T19:37:55.284Z,13.66
2017-05-09T19:40:22.861Z,13.64
2017-05-09T19:42:50.391Z,13.57
2017-05-09T19:45:17.978Z,13.51
2017-05-09T19:47:45.550Z,13.50
2017-05-09T19:50:13.271Z,13.35
2017-05-09T19:52:40.811Z,13.16
2017-05-09T19:55:08.340Z,13.01
2017-05-09T19:57:35.938Z,13.21
2017-05-09T20:00:03.487Z,12.84
2017-05-09T20:02:31.211Z,12.67
2017-05-09T20:04:58.755Z,12.86
2017-05-09T20:07:26.308Z,12.80
2017-05-09T20:09:53.876Z,12.68
2017-05-09T20:12:21.397Z,12.73
2017-05-09T20:14:48.969Z,12.67
2017-05-09T20:17:16.515Z,12.52
2017-05-09T20:19:44.185Z,12.51
2017-05-09T20:22:11.740Z,12.46
2017-05-09T20:24:39.284Z,12.32
2017-05-09T20:27:06.814Z,12.23
2017-05-09T20:29:34.329Z,11.96
2017-05-09T20:32:01.911Z,11.92
2017-05-09T20:34:29.586Z,11.99
2017-05-09T20:36:57.320Z,11.99
2017-05-09T20:39:24.845Z,12.07
2017-05-09T20:41:52.404Z,12.20
2017-05-09T20:44:20.001Z,12.17
2017-05-09T20:46:47.583Z,11.97
2017-05-09T20:49:15.290Z,11.92
2017-05-09T20:51:42.812Z,11.84
2017-05-09T20:54:10.352Z,11.79
2017-05-09T20:56:37.929Z,11.94
2017-05-09T20:59:05.462Z,12.15
2017-05-09T21:01:33.279Z,11.76
2017-05-09T21:04:00.807Z,11.74
2017-05-09T21:06:28.337Z,11.32
2017-05-09T21:08:55.917Z,11.11
2017-05-09T21:11:23.448Z,11.26
2017-05-09T21:13:51.470Z,11.19
2017-05-09T21:16:19.034Z,11.24
2017-05-09T21:18:46.592Z,11.21
2017-05-09T21:21:14.105Z,11.16
2017-05-09T21:23:41.655Z,10.99
2017-05-09T21:26:09.578Z,10.80
2017-05-09T21:28:37.096Z,10.76
2017-05-09T21:31:04.628Z,10.82
2017-05-09T21:33:32.201Z,10.77
2017-05-09T21:35:59.749Z,10.72
2017-05-09T21:38:27.310Z,10.75
2017-05-09T21:40:54.823Z,10.80
2017-05-09T21:43:22.523Z,10.70
2017-05-09T21:45:50.039Z,10.59
2017-05-09T21:48:17.555Z,10.63
2017-05-09T21:50:45.114Z,10.53
2017-05-09T21:53:12.664Z,10.52
2017-05-09T21:55:40.278Z,10.59
2017-05-09T21:58:07.799Z,10.37
2017-05-09T22:00:35.322Z,10.44
2017-05-09T22:03:02.893Z,10.28
2017-05-09T22:05:30.434Z,10.25
2017-05-09T22:07:58.271Z,10.25
2017-05-09T22:10:25.880Z,10.15
2017-05-09T22:12:53.399Z,10.08
2017-05-09T22:15:20.996Z,10.19
2017-05-09T22:17:48.516Z,10.08
2017-05-09T22:20:16.130Z,9.85
2017-05-09T22:22:43.690Z,9.89
2017-05-09T22:25:11.288Z,10.04
2017-05-09T22:27:38.804Z,10.00
2017-05-09T22:30:06.495Z,9.99
2017-05-09T22:32:34.014Z,9.82
2017-05-09T22:35:01.547Z,9.74
2017-05-09T22:37:29.173Z,9.62
2017-05-09T22:39:56.734Z,9.57
2017-05-09T22:42:24.302Z,9.59
2017-05-09T22:44:51.838Z,9.66
2017-05-09T22:47:19.359Z,9.56
2017-05-09T22:49:46.911Z,9.56
2017-05-09T22:52:14.432Z,9.76
2017-05-09T22:54:42.000Z,9.71
2017-05-09T22:57:09.559Z,9.60
2017-05-09T22:59:37.426Z,9.38
2017-05-09T23:02:05.008Z,9.47
2017-05-09T23:04:32.548Z,9.39
2017-05-09T23:07:00.214Z,9.41
2017-05-09T23:09:27.808Z,9.42
2017-05-09T23:11:55.707Z,9.30
2017-05-09T23:14:23.225Z,9.17
2017-05-09T23:16:50.745Z,9.16
2017-05-09T23:19:18.311Z,9.15
2017-05-09T23:21:45.837Z,9.24
2017-05-09T23:24:13.427Z,9.24
2017-05-09T23:26:40.972Z,9.17
2017-05-09T23:29:08.532Z,8.89
2017-05-09T23:31:36.088Z,9.07
2017-05-09T23:34:03.750Z,9.11
2017-05-09T23:36:31.284Z,9.22
2017-05-09T23:38:58.792Z,9.08
2017-05-09T23:41:26.401Z,9.08
2017-05-09T23:43:53.917Z,8.83
2017-05-09T23:46:21.599Z,8.89
2017-05-09T23:48:49.125Z,8.87
2017-05-09T23:51:16.725Z,8.85
2017-05-09T23:53:44.383Z,8.92
2017-05-09T23:56:11.982Z,8.90
2017-05-09T23:58:39.595Z,8.87
